Sarasota Bradenton International Airport
KSRQ : rendu visible

Aérodrome :











RETROUVEZ-NOUS SUR...

 
LOGIN :

S'inscrire | Disclaimer

   EN    FR    IT 

 









Légende :    VFR   VFR Marginal   IFR   IFR Intensif   IFR Très Intensif
Visi : 
Plafond : 
>= 8 km
>= 3000ft
5 à 8 km
1000 à 3000 ft
1500m à 5 km
500 à 1000 ft
800 à 1500m
200 à 500 ft
< 800m
< 200 ft
Symboles :   Orages  Brouillard  Fortes neiges  Fortes précipitations  Vent > 20 kt






- Altitude de l'aérodrome : 30 ft
- Code IATA : SRQ


KSRQ - Sarasota Bradenton International

DERNIER METAR :
  • 201053Z 10006KT 10SM OVC006 23/22 A3006 RMK AO2 SLP180 T02280217

METARs EXPIRÉS :
  • 200953Z AUTO 11007KT 10SM OVC007 23/22 A3006 RMK AO2 SLP177 T02280217
  • 200908Z AUTO 10008KT 10SM BKN009 BKN050 23/22 A3005 RMK AO2 T02280217
  • 200853Z AUTO 10007KT 10SM FEW009 BKN049 23/22 A3005 RMK AO2 RAB09E24 SLP176 P0000 60000 T02280217 56018

TAF KSRQ
Valide du 20 à 10h jusqu'au 21 à 06h UTC


201002Z 2010/2106 06004KT P6SM SCT015 BKN040
TEMPO 2010/2014 5SM BR BKN007
FM201400 12007KT P6SM SCT020 BKN040
FM201800 21011KT P6SM SCT050 SCT250
FM202100 24012KT P6SM SCT050 SCT250
FM210100 27008KT P6SM FEW015 BKN025



MET'MAP, la Météo Aéronautique d'un coup d'oeil ! - Copyright ORBIFLY Décembre 2007 - Disclaimer

ORBIFLY MET'MAP TEAM :

Programmation & Développement : Alexandra Zaïnal
Sur une idée originale de : Baudouin d'Aumeries
Assistance à la programmation : Marc-Olivier Méhu
Soutien technique & logistique : Manuel Goepfert

Contact : metmap@orbifly.com




SOURCES & CREDITS :

   NOAA       Earth
Advisory